sensor_id;sensor_type;location;lat;lon;timestamp;P1;durP1;ratioP1;P2;durP2;ratioP2
75459;SDS011;64039;53.060;9.342;2023-08-17T00:01:26;3.95;;;1.33;;
75459;SDS011;64039;53.060;9.342;2023-08-17T00:03:52;4.80;;;1.40;;
75459;SDS011;64039;53.060;9.342;2023-08-17T00:06:17;4.15;;;1.58;;
75459;SDS011;64039;53.060;9.342;2023-08-17T00:08:43;4.50;;;1.60;;
75459;SDS011;64039;53.060;9.342;2023-08-17T00:11:08;3.95;;;1.30;;
75459;SDS011;64039;53.060;9.342;2023-08-17T00:13:34;9.63;;;1.75;;
75459;SDS011;64039;53.060;9.342;2023-08-17T00:16:00;3.92;;;1.50;;
75459;SDS011;64039;53.060;9.342;2023-08-17T00:18:26;3.53;;;1.50;;
75459;SDS011;64039;53.060;9.342;2023-08-17T00:20:51;5.75;;;1.45;;
75459;SDS011;64039;53.060;9.342;2023-08-17T00:23:17;5.93;;;1.75;;
75459;SDS011;64039;53.060;9.342;2023-08-17T00:25:42;3.75;;;1.20;;
75459;SDS011;64039;53.060;9.342;2023-08-17T00:28:08;4.55;;;1.55;;
75459;SDS011;64039;53.060;9.342;2023-08-17T00:30:33;4.63;;;1.60;;
75459;SDS011;64039;53.060;9.342;2023-08-17T00:33:01;5.13;;;1.60;;
75459;SDS011;64039;53.060;9.342;2023-08-17T00:35:27;6.60;;;1.55;;
75459;SDS011;64039;53.060;9.342;2023-08-17T00:37:53;6.22;;;1.85;;
75459;SDS011;64039;53.060;9.342;2023-08-17T00:40:19;5.32;;;1.70;;
75459;SDS011;64039;53.060;9.342;2023-08-17T00:42:44;5.57;;;1.70;;
75459;SDS011;64039;53.060;9.342;2023-08-17T00:45:10;5.03;;;1.95;;
75459;SDS011;64039;53.060;9.342;2023-08-17T00:47:35;6.35;;;1.88;;
75459;SDS011;64039;53.060;9.342;2023-08-17T00:50:01;4.75;;;1.85;;
75459;SDS011;64039;53.060;9.342;2023-08-17T00:52:27;4.82;;;1.60;;
75459;SDS011;64039;53.060;9.342;2023-08-17T00:54:54;5.50;;;1.80;;
75459;SDS011;64039;53.060;9.342;2023-08-17T00:57:20;6.47;;;1.88;;
75459;SDS011;64039;53.060;9.342;2023-08-17T00:59:46;5.60;;;1.70;;
75459;SDS011;64039;53.060;9.342;2023-08-17T01:02:12;3.10;;;1.63;;
75459;SDS011;64039;53.060;9.342;2023-08-17T01:04:37;5.68;;;1.70;;
75459;SDS011;64039;53.060;9.342;2023-08-17T01:07:03;6.45;;;2.08;;
75459;SDS011;64039;53.060;9.342;2023-08-17T01:09:28;4.75;;;1.73;;
75459;SDS011;64039;53.060;9.342;2023-08-17T01:12:02;4.35;;;1.60;;
75459;SDS011;64039;53.060;9.342;2023-08-17T01:14:43;3.03;;;1.55;;
75459;SDS011;64039;53.060;9.342;2023-08-17T01:17:47;3.80;;;1.60;;
75459;SDS011;64039;53.060;9.342;2023-08-17T01:20:19;6.55;;;2.00;;
75459;SDS011;64039;53.060;9.342;2023-08-17T01:22:49;3.88;;;1.80;;
75459;SDS011;64039;53.060;9.342;2023-08-17T01:25:17;5.60;;;1.65;;
75459;SDS011;64039;53.060;9.342;2023-08-17T01:27:46;5.32;;;1.77;;
75459;SDS011;64039;53.060;9.342;2023-08-17T01:30:13;4.63;;;1.52;;
75459;SDS011;64039;53.060;9.342;2023-08-17T01:32:50;7.32;;;1.90;;
75459;SDS011;64039;53.060;9.342;2023-08-17T01:35:46;7.32;;;1.80;;
75459;SDS011;64039;53.060;9.342;2023-08-17T01:38:19;3.35;;;2.15;;
75459;SDS011;64039;53.060;9.342;2023-08-17T01:40:47;3.75;;;1.90;;
75459;SDS011;64039;53.060;9.342;2023-08-17T01:43:15;8.85;;;2.22;;
75459;SDS011;64039;53.060;9.342;2023-08-17T01:45:41;4.95;;;2.08;;
75459;SDS011;64039;53.060;9.342;2023-08-17T01:48:07;4.53;;;1.67;;
75459;SDS011;64039;53.060;9.342;2023-08-17T01:50:32;5.03;;;1.98;;
75459;SDS011;64039;53.060;9.342;2023-08-17T01:52:58;6.10;;;1.92;;
75459;SDS011;64039;53.060;9.342;2023-08-17T01:55:23;8.35;;;2.10;;
75459;SDS011;64039;53.060;9.342;2023-08-17T01:57:49;6.05;;;2.13;;
75459;SDS011;64039;53.060;9.342;2023-08-17T02:00:15;6.32;;;1.92;;
75459;SDS011;64039;53.060;9.342;2023-08-17T02:02:40;4.53;;;1.80;;
75459;SDS011;64039;53.060;9.342;2023-08-17T02:05:06;4.43;;;1.90;;
75459;SDS011;64039;53.060;9.342;2023-08-17T02:07:32;6.18;;;1.83;;
75459;SDS011;64039;53.060;9.342;2023-08-17T02:09:57;6.18;;;2.00;;
75459;SDS011;64039;53.060;9.342;2023-08-17T02:12:23;5.28;;;2.10;;
75459;SDS011;64039;53.060;9.342;2023-08-17T02:14:49;6.80;;;1.83;;
75459;SDS011;64039;53.060;9.342;2023-08-17T02:17:14;5.38;;;2.10;;
75459;SDS011;64039;53.060;9.342;2023-08-17T02:19:42;4.88;;;2.30;;
75459;SDS011;64039;53.060;9.342;2023-08-17T02:22:08;3.60;;;1.90;;
75459;SDS011;64039;53.060;9.342;2023-08-17T02:24:34;5.57;;;2.20;;
75459;SDS011;64039;53.060;9.342;2023-08-17T02:26:59;4.80;;;1.83;;
75459;SDS011;64039;53.060;9.342;2023-08-17T02:29:24;5.85;;;2.15;;
75459;SDS011;64039;53.060;9.342;2023-08-17T02:31:50;5.15;;;1.88;;
75459;SDS011;64039;53.060;9.342;2023-08-17T02:34:15;5.90;;;1.85;;
75459;SDS011;64039;53.060;9.342;2023-08-17T02:36:41;5.63;;;2.08;;
75459;SDS011;64039;53.060;9.342;2023-08-17T02:39:06;5.47;;;2.17;;
75459;SDS011;64039;53.060;9.342;2023-08-17T02:41:32;5.32;;;1.98;;
75459;SDS011;64039;53.060;9.342;2023-08-17T02:43:57;9.13;;;2.10;;
75459;SDS011;64039;53.060;9.342;2023-08-17T02:46:24;6.85;;;1.92;;
75459;SDS011;64039;53.060;9.342;2023-08-17T02:48:49;4.53;;;1.90;;
75459;SDS011;64039;53.060;9.342;2023-08-17T02:51:16;4.80;;;2.00;;
75459;SDS011;64039;53.060;9.342;2023-08-17T02:53:41;6.03;;;1.90;;
75459;SDS011;64039;53.060;9.342;2023-08-17T02:56:07;4.07;;;2.00;;
75459;SDS011;64039;53.060;9.342;2023-08-17T02:58:35;6.25;;;1.75;;
75459;SDS011;64039;53.060;9.342;2023-08-17T03:01:02;6.05;;;1.88;;
75459;SDS011;64039;53.060;9.342;2023-08-17T03:03:28;3.15;;;1.67;;
75459;SDS011;64039;53.060;9.342;2023-08-17T03:05:53;5.60;;;1.85;;
75459;SDS011;64039;53.060;9.342;2023-08-17T03:08:18;4.93;;;1.80;;
75459;SDS011;64039;53.060;9.342;2023-08-17T03:10:44;3.38;;;2.05;;
75459;SDS011;64039;53.060;9.342;2023-08-17T03:13:09;2.90;;;1.77;;
75459;SDS011;64039;53.060;9.342;2023-08-17T03:15:35;6.07;;;2.10;;
75459;SDS011;64039;53.060;9.342;2023-08-17T03:18:04;3.53;;;1.73;;
75459;SDS011;64039;53.060;9.342;2023-08-17T03:20:30;5.63;;;2.10;;
75459;SDS011;64039;53.060;9.342;2023-08-17T03:22:56;4.90;;;1.95;;
75459;SDS011;64039;53.060;9.342;2023-08-17T03:25:21;7.07;;;2.20;;
75459;SDS011;64039;53.060;9.342;2023-08-17T03:27:47;5.95;;;2.10;;
75459;SDS011;64039;53.060;9.342;2023-08-17T03:30:12;5.13;;;2.08;;
75459;SDS011;64039;53.060;9.342;2023-08-17T03:32:37;7.57;;;1.77;;
75459;SDS011;64039;53.060;9.342;2023-08-17T03:35:03;9.15;;;2.03;;
75459;SDS011;64039;53.060;9.342;2023-08-17T03:37:29;4.95;;;1.77;;
75459;SDS011;64039;53.060;9.342;2023-08-17T03:39:54;6.00;;;2.22;;
75459;SDS011;64039;53.060;9.342;2023-08-17T03:42:20;4.18;;;1.60;;
75459;SDS011;64039;53.060;9.342;2023-08-17T03:44:45;5.82;;;1.80;;
75459;SDS011;64039;53.060;9.342;2023-08-17T03:47:11;5.18;;;2.03;;
75459;SDS011;64039;53.060;9.342;2023-08-17T03:49:36;3.53;;;1.88;;
75459;SDS011;64039;53.060;9.342;2023-08-17T03:52:02;4.78;;;1.90;;
75459;SDS011;64039;53.060;9.342;2023-08-17T03:54:27;4.60;;;1.65;;
75459;SDS011;64039;53.060;9.342;2023-08-17T03:56:53;4.50;;;1.73;;
75459;SDS011;64039;53.060;9.342;2023-08-17T03:59:18;5.18;;;1.90;;
75459;SDS011;64039;53.060;9.342;2023-08-17T04:01:44;4.18;;;1.70;;
75459;SDS011;64039;53.060;9.342;2023-08-17T04:04:09;3.58;;;1.50;;
75459;SDS011;64039;53.060;9.342;2023-08-17T04:06:35;6.15;;;1.85;;
75459;SDS011;64039;53.060;9.342;2023-08-17T04:09:01;4.13;;;1.73;;
75459;SDS011;64039;53.060;9.342;2023-08-17T04:11:26;4.40;;;1.70;;
75459;SDS011;64039;53.060;9.342;2023-08-17T04:13:52;4.72;;;1.70;;
75459;SDS011;64039;53.060;9.342;2023-08-17T04:16:17;4.22;;;1.60;;
75459;SDS011;64039;53.060;9.342;2023-08-17T04:18:43;2.70;;;1.60;;
75459;SDS011;64039;53.060;9.342;2023-08-17T04:21:08;5.63;;;1.60;;
75459;SDS011;64039;53.060;9.342;2023-08-17T04:23:34;6.57;;;1.90;;
75459;SDS011;64039;53.060;9.342;2023-08-17T04:25:59;12.30;;;8.38;;
75459;SDS011;64039;53.060;9.342;2023-08-17T04:28:25;23.80;;;14.48;;
75459;SDS011;64039;53.060;9.342;2023-08-17T04:30:50;38.10;;;21.63;;
75459;SDS011;64039;53.060;9.342;2023-08-17T04:33:16;6.18;;;2.95;;
75459;SDS011;64039;53.060;9.342;2023-08-17T04:35:41;9.10;;;4.45;;
75459;SDS011;64039;53.060;9.342;2023-08-17T04:38:07;14.27;;;4.25;;
75459;SDS011;64039;53.060;9.342;2023-08-17T04:40:33;5.40;;;1.80;;
75459;SDS011;64039;53.060;9.342;2023-08-17T04:42:58;4.53;;;2.45;;
75459;SDS011;64039;53.060;9.342;2023-08-17T04:45:24;7.35;;;2.13;;
75459;SDS011;64039;53.060;9.342;2023-08-17T04:47:50;14.63;;;8.63;;
75459;SDS011;64039;53.060;9.342;2023-08-17T04:50:15;26.40;;;16.38;;
75459;SDS011;64039;53.060;9.342;2023-08-17T04:52:42;15.07;;;9.43;;
75459;SDS011;64039;53.060;9.342;2023-08-17T04:55:08;20.50;;;11.98;;
75459;SDS011;64039;53.060;9.342;2023-08-17T04:57:34;17.85;;;10.65;;
75459;SDS011;64039;53.060;9.342;2023-08-17T04:59:59;7.88;;;4.20;;
75459;SDS011;64039;53.060;9.342;2023-08-17T05:02:25;6.97;;;2.88;;
75459;SDS011;64039;53.060;9.342;2023-08-17T05:04:50;7.03;;;2.40;;
75459;SDS011;64039;53.060;9.342;2023-08-17T05:07:16;6.38;;;2.00;;
75459;SDS011;64039;53.060;9.342;2023-08-17T05:09:42;5.63;;;2.28;;
75459;SDS011;64039;53.060;9.342;2023-08-17T05:12:07;5.25;;;2.63;;
75459;SDS011;64039;53.060;9.342;2023-08-17T05:14:33;6.30;;;3.60;;
75459;SDS011;64039;53.060;9.342;2023-08-17T05:16:59;11.60;;;5.53;;
75459;SDS011;64039;53.060;9.342;2023-08-17T05:19:24;3.28;;;2.00;;
75459;SDS011;64039;53.060;9.342;2023-08-17T05:21:50;7.78;;;2.47;;
75459;SDS011;64039;53.060;9.342;2023-08-17T05:24:16;6.90;;;2.50;;
75459;SDS011;64039;53.060;9.342;2023-08-17T05:26:42;5.85;;;2.30;;
75459;SDS011;64039;53.060;9.342;2023-08-17T05:29:08;3.42;;;2.20;;
75459;SDS011;64039;53.060;9.342;2023-08-17T05:31:34;5.80;;;2.20;;
75459;SDS011;64039;53.060;9.342;2023-08-17T05:33:59;6.03;;;2.30;;
75459;SDS011;64039;53.060;9.342;2023-08-17T05:36:24;5.82;;;2.33;;
75459;SDS011;64039;53.060;9.342;2023-08-17T05:38:50;4.93;;;2.03;;
75459;SDS011;64039;53.060;9.342;2023-08-17T05:41:15;5.88;;;2.10;;
75459;SDS011;64039;53.060;9.342;2023-08-17T05:43:42;5.85;;;2.10;;
75459;SDS011;64039;53.060;9.342;2023-08-17T05:46:08;4.78;;;2.30;;
75459;SDS011;64039;53.060;9.342;2023-08-17T05:48:33;6.63;;;2.97;;
75459;SDS011;64039;53.060;9.342;2023-08-17T05:50:59;7.63;;;2.90;;
75459;SDS011;64039;53.060;9.342;2023-08-17T05:53:24;4.05;;;2.13;;
75459;SDS011;64039;53.060;9.342;2023-08-17T05:55:50;3.75;;;2.40;;
75459;SDS011;64039;53.060;9.342;2023-08-17T05:58:15;6.97;;;2.50;;
75459;SDS011;64039;53.060;9.342;2023-08-17T06:00:41;6.30;;;2.33;;
75459;SDS011;64039;53.060;9.342;2023-08-17T06:03:06;4.93;;;2.08;;
75459;SDS011;64039;53.060;9.342;2023-08-17T06:05:32;6.45;;;2.50;;
75459;SDS011;64039;53.060;9.342;2023-08-17T06:07:58;6.15;;;2.80;;
75459;SDS011;64039;53.060;9.342;2023-08-17T06:10:24;4.35;;;2.10;;
75459;SDS011;64039;53.060;9.342;2023-08-17T06:12:53;5.45;;;2.10;;
75459;SDS011;64039;53.060;9.342;2023-08-17T06:15:19;7.47;;;2.22;;
75459;SDS011;64039;53.060;9.342;2023-08-17T06:17:45;5.05;;;1.90;;
75459;SDS011;64039;53.060;9.342;2023-08-17T06:20:11;3.53;;;2.08;;
75459;SDS011;64039;53.060;9.342;2023-08-17T06:22:37;3.95;;;2.17;;
75459;SDS011;64039;53.060;9.342;2023-08-17T06:25:03;5.75;;;2.45;;
75459;SDS011;64039;53.060;9.342;2023-08-17T06:27:30;5.97;;;2.90;;
75459;SDS011;64039;53.060;9.342;2023-08-17T06:29:55;7.13;;;2.85;;
75459;SDS011;64039;53.060;9.342;2023-08-17T06:32:21;5.10;;;2.22;;
75459;SDS011;64039;53.060;9.342;2023-08-17T06:34:46;7.78;;;2.60;;
75459;SDS011;64039;53.060;9.342;2023-08-17T06:37:12;3.30;;;2.05;;
75459;SDS011;64039;53.060;9.342;2023-08-17T06:39:37;4.95;;;2.40;;
75459;SDS011;64039;53.060;9.342;2023-08-17T06:42:03;4.93;;;2.30;;
75459;SDS011;64039;53.060;9.342;2023-08-17T06:44:29;5.25;;;2.00;;
75459;SDS011;64039;53.060;9.342;2023-08-17T06:46:56;7.03;;;2.60;;
75459;SDS011;64039;53.060;9.342;2023-08-17T06:49:21;6.15;;;2.65;;
75459;SDS011;64039;53.060;9.342;2023-08-17T06:51:47;5.82;;;3.40;;
75459;SDS011;64039;53.060;9.342;2023-08-17T06:54:13;11.13;;;4.68;;
75459;SDS011;64039;53.060;9.342;2023-08-17T06:56:38;14.27;;;8.60;;
75459;SDS011;64039;53.060;9.342;2023-08-17T06:59:04;7.68;;;2.38;;
75459;SDS011;64039;53.060;9.342;2023-08-17T07:01:29;3.42;;;1.80;;
75459;SDS011;64039;53.060;9.342;2023-08-17T07:03:54;5.23;;;2.03;;
75459;SDS011;64039;53.060;9.342;2023-08-17T07:06:21;5.45;;;3.10;;
75459;SDS011;64039;53.060;9.342;2023-08-17T07:08:46;6.75;;;2.45;;
75459;SDS011;64039;53.060;9.342;2023-08-17T07:11:11;4.80;;;2.25;;
75459;SDS011;64039;53.060;9.342;2023-08-17T07:13:37;4.93;;;2.30;;
75459;SDS011;64039;53.060;9.342;2023-08-17T07:16:02;7.28;;;2.38;;
75459;SDS011;64039;53.060;9.342;2023-08-17T07:18:28;5.55;;;1.88;;
75459;SDS011;64039;53.060;9.342;2023-08-17T07:20:54;4.50;;;1.92;;
75459;SDS011;64039;53.060;9.342;2023-08-17T07:23:19;5.43;;;1.88;;
75459;SDS011;64039;53.060;9.342;2023-08-17T07:25:45;3.13;;;1.50;;
75459;SDS011;64039;53.060;9.342;2023-08-17T07:28:10;5.07;;;2.22;;
75459;SDS011;64039;53.060;9.342;2023-08-17T07:30:36;4.80;;;1.60;;
75459;SDS011;64039;53.060;9.342;2023-08-17T07:33:01;3.63;;;1.65;;
75459;SDS011;64039;53.060;9.342;2023-08-17T07:35:27;3.40;;;1.58;;
75459;SDS011;64039;53.060;9.342;2023-08-17T07:37:52;4.15;;;1.77;;
75459;SDS011;64039;53.060;9.342;2023-08-17T07:40:18;3.80;;;1.80;;
75459;SDS011;64039;53.060;9.342;2023-08-17T07:42:43;2.90;;;1.50;;
75459;SDS011;64039;53.060;9.342;2023-08-17T07:45:10;3.63;;;1.52;;
75459;SDS011;64039;53.060;9.342;2023-08-17T07:47:36;3.42;;;1.65;;
75459;SDS011;64039;53.060;9.342;2023-08-17T07:50:02;3.22;;;1.70;;
75459;SDS011;64039;53.060;9.342;2023-08-17T07:52:29;5.50;;;2.30;;
75459;SDS011;64039;53.060;9.342;2023-08-17T07:54:54;4.20;;;1.88;;
75459;SDS011;64039;53.060;9.342;2023-08-17T07:57:20;4.47;;;1.90;;
75459;SDS011;64039;53.060;9.342;2023-08-17T07:59:45;4.88;;;2.10;;
75459;SDS011;64039;53.060;9.342;2023-08-17T08:02:11;4.75;;;1.73;;
75459;SDS011;64039;53.060;9.342;2023-08-17T08:04:36;4.40;;;1.60;;
75459;SDS011;64039;53.060;9.342;2023-08-17T08:07:02;4.88;;;1.77;;
75459;SDS011;64039;53.060;9.342;2023-08-17T08:09:27;2.95;;;1.58;;
75459;SDS011;64039;53.060;9.342;2023-08-17T08:11:53;3.03;;;1.83;;
75459;SDS011;64039;53.060;9.342;2023-08-17T08:14:18;4.68;;;2.10;;
75459;SDS011;64039;53.060;9.342;2023-08-17T08:16:44;2.47;;;1.60;;
75459;SDS011;64039;53.060;9.342;2023-08-17T08:19:09;4.72;;;1.70;;
75459;SDS011;64039;53.060;9.342;2023-08-17T08:21:35;2.70;;;1.65;;
75459;SDS011;64039;53.060;9.342;2023-08-17T08:24:00;2.60;;;1.45;;
75459;SDS011;64039;53.060;9.342;2023-08-17T08:26:26;2.10;;;1.50;;
75459;SDS011;64039;53.060;9.342;2023-08-17T08:28:51;3.47;;;1.55;;
75459;SDS011;64039;53.060;9.342;2023-08-17T08:31:17;3.38;;;1.30;;
75459;SDS011;64039;53.060;9.342;2023-08-17T08:33:42;1.40;;;1.05;;
75459;SDS011;64039;53.060;9.342;2023-08-17T08:36:08;2.40;;;1.20;;
75459;SDS011;64039;53.060;9.342;2023-08-17T08:38:34;2.42;;;1.23;;
75459;SDS011;64039;53.060;9.342;2023-08-17T08:41:00;1.60;;;1.13;;
75459;SDS011;64039;53.060;9.342;2023-08-17T08:43:30;3.83;;;1.85;;
75459;SDS011;64039;53.060;9.342;2023-08-17T08:45:56;3.00;;;1.73;;
75459;SDS011;64039;53.060;9.342;2023-08-17T08:48:22;2.58;;;1.30;;
75459;SDS011;64039;53.060;9.342;2023-08-17T08:50:51;2.95;;;1.25;;
75459;SDS011;64039;53.060;9.342;2023-08-17T08:53:21;2.35;;;1.38;;
75459;SDS011;64039;53.060;9.342;2023-08-17T08:55:58;2.95;;;1.20;;
75459;SDS011;64039;53.060;9.342;2023-08-17T08:58:24;2.80;;;1.20;;
75459;SDS011;64039;53.060;9.342;2023-08-17T09:00:51;2.47;;;1.23;;
75459;SDS011;64039;53.060;9.342;2023-08-17T09:03:17;3.35;;;1.25;;
75459;SDS011;64039;53.060;9.342;2023-08-17T09:05:48;3.22;;;1.10;;
75459;SDS011;64039;53.060;9.342;2023-08-17T09:08:15;1.73;;;1.30;;
75459;SDS011;64039;53.060;9.342;2023-08-17T09:10:43;1.83;;;1.10;;
75459;SDS011;64039;53.060;9.342;2023-08-17T09:13:09;1.85;;;0.93;;
75459;SDS011;64039;53.060;9.342;2023-08-17T09:15:35;3.20;;;1.40;;
75459;SDS011;64039;53.060;9.342;2023-08-17T09:18:00;1.63;;;1.00;;
75459;SDS011;64039;53.060;9.342;2023-08-17T09:20:35;2.60;;;1.10;;
75459;SDS011;64039;53.060;9.342;2023-08-17T09:23:03;2.53;;;1.00;;
75459;SDS011;64039;53.060;9.342;2023-08-17T09:25:30;1.90;;;0.98;;
75459;SDS011;64039;53.060;9.342;2023-08-17T09:27:57;2.20;;;1.10;;
75459;SDS011;64039;53.060;9.342;2023-08-17T09:30:22;1.95;;;1.17;;
75459;SDS011;64039;53.060;9.342;2023-08-17T09:32:48;1.85;;;1.00;;
75459;SDS011;64039;53.060;9.342;2023-08-17T09:35:14;1.70;;;0.80;;
75459;SDS011;64039;53.060;9.342;2023-08-17T09:37:40;1.80;;;0.95;;
75459;SDS011;64039;53.060;9.342;2023-08-17T09:40:06;3.28;;;1.10;;
75459;SDS011;64039;53.060;9.342;2023-08-17T09:42:34;0.95;;;0.68;;
75459;SDS011;64039;53.060;9.342;2023-08-17T09:45:00;1.60;;;1.00;;
75459;SDS011;64039;53.060;9.342;2023-08-17T09:47:27;1.95;;;0.75;;
75459;SDS011;64039;53.060;9.342;2023-08-17T09:49:54;1.00;;;0.80;;
75459;SDS011;64039;53.060;9.342;2023-08-17T09:52:21;1.15;;;0.80;;
75459;SDS011;64039;53.060;9.342;2023-08-17T09:54:47;1.65;;;1.08;;
75459;SDS011;64039;53.060;9.342;2023-08-17T09:57:13;1.88;;;1.25;;
75459;SDS011;64039;53.060;9.342;2023-08-17T09:59:39;2.30;;;1.08;;
75459;SDS011;64039;53.060;9.342;2023-08-17T10:02:39;1.33;;;0.70;;
75459;SDS011;64039;53.060;9.342;2023-08-17T10:04:58;1.52;;;0.82;;
75459;SDS011;64039;53.060;9.342;2023-08-17T10:07:28;4.55;;;2.97;;
75459;SDS011;64039;53.060;9.342;2023-08-17T10:10:00;2.17;;;1.20;;
75459;SDS011;64039;53.060;9.342;2023-08-17T10:12:29;2.42;;;1.23;;
75459;SDS011;64039;53.060;9.342;2023-08-17T10:15:07;4.75;;;2.22;;
75459;SDS011;64039;53.060;9.342;2023-08-17T10:17:37;1.92;;;1.45;;
75459;SDS011;64039;53.060;9.342;2023-08-17T10:20:09;1.80;;;1.00;;
75459;SDS011;64039;53.060;9.342;2023-08-17T10:25:11;2.97;;;1.13;;
75459;SDS011;64039;53.060;9.342;2023-08-17T10:27:38;2.28;;;0.95;;
75459;SDS011;64039;53.060;9.342;2023-08-17T10:30:06;1.50;;;0.88;;
75459;SDS011;64039;53.060;9.342;2023-08-17T10:32:34;2.95;;;1.05;;
75459;SDS011;64039;53.060;9.342;2023-08-17T10:35:00;1.52;;;1.00;;
75459;SDS011;64039;53.060;9.342;2023-08-17T10:37:27;1.38;;;0.82;;
75459;SDS011;64039;53.060;9.342;2023-08-17T10:39:53;3.42;;;1.02;;
75459;SDS011;64039;53.060;9.342;2023-08-17T10:42:29;1.80;;;0.90;;
75459;SDS011;64039;53.060;9.342;2023-08-17T10:44:59;2.30;;;0.75;;
75459;SDS011;64039;53.060;9.342;2023-08-17T10:47:28;0.88;;;0.70;;
75459;SDS011;64039;53.060;9.342;2023-08-17T10:50:19;1.55;;;0.70;;
75459;SDS011;64039;53.060;9.342;2023-08-17T10:52:48;1.77;;;1.00;;
75459;SDS011;64039;53.060;9.342;2023-08-17T10:55:15;1.92;;;1.00;;
75459;SDS011;64039;53.060;9.342;2023-08-17T10:57:42;0.90;;;0.70;;
75459;SDS011;64039;53.060;9.342;2023-08-17T11:02:42;1.73;;;0.80;;
75459;SDS011;64039;53.060;9.342;2023-08-17T11:05:09;1.15;;;0.88;;
75459;SDS011;64039;53.060;9.342;2023-08-17T11:07:41;0.80;;;0.60;;
75459;SDS011;64039;53.060;9.342;2023-08-17T11:10:12;1.92;;;0.60;;
75459;SDS011;64039;53.060;9.342;2023-08-17T11:12:55;1.75;;;0.75;;
75459;SDS011;64039;53.060;9.342;2023-08-17T11:18:10;0.75;;;0.70;;
75459;SDS011;64039;53.060;9.342;2023-08-17T11:20:37;0.98;;;0.63;;
75459;SDS011;64039;53.060;9.342;2023-08-17T11:23:05;2.95;;;0.90;;
75459;SDS011;64039;53.060;9.342;2023-08-17T11:25:31;1.20;;;0.90;;
75459;SDS011;64039;53.060;9.342;2023-08-17T11:28:01;1.50;;;0.90;;
75459;SDS011;64039;53.060;9.342;2023-08-17T11:30:27;1.00;;;0.80;;
75459;SDS011;64039;53.060;9.342;2023-08-17T11:32:54;2.72;;;0.68;;
75459;SDS011;64039;53.060;9.342;2023-08-17T11:35:20;1.08;;;0.68;;
75459;SDS011;64039;53.060;9.342;2023-08-17T11:37:46;1.40;;;0.85;;
75459;SDS011;64039;53.060;9.342;2023-08-17T11:40:13;1.35;;;0.82;;
75459;SDS011;64039;53.060;9.342;2023-08-17T11:42:39;1.55;;;0.70;;
75459;SDS011;64039;53.060;9.342;2023-08-17T11:45:06;1.55;;;1.10;;
75459;SDS011;64039;53.060;9.342;2023-08-17T11:47:35;0.95;;;0.70;;
75459;SDS011;64039;53.060;9.342;2023-08-17T11:50:02;0.75;;;0.57;;
75459;SDS011;64039;53.060;9.342;2023-08-17T11:52:29;2.65;;;0.75;;
75459;SDS011;64039;53.060;9.342;2023-08-17T11:54:58;1.42;;;0.82;;
75459;SDS011;64039;53.060;9.342;2023-08-17T11:57:24;1.40;;;0.80;;
75459;SDS011;64039;53.060;9.342;2023-08-17T11:59:53;2.03;;;0.90;;
75459;SDS011;64039;53.060;9.342;2023-08-17T12:02:20;1.00;;;0.85;;
75459;SDS011;64039;53.060;9.342;2023-08-17T12:04:49;1.58;;;0.80;;
75459;SDS011;64039;53.060;9.342;2023-08-17T12:07:16;2.28;;;1.10;;
75459;SDS011;64039;53.060;9.342;2023-08-17T12:09:42;1.58;;;1.00;;
75459;SDS011;64039;53.060;9.342;2023-08-17T12:12:09;1.55;;;0.80;;
75459;SDS011;64039;53.060;9.342;2023-08-17T12:14:35;1.17;;;0.80;;
75459;SDS011;64039;53.060;9.342;2023-08-17T12:17:00;1.88;;;0.73;;
75459;SDS011;64039;53.060;9.342;2023-08-17T12:19:27;2.67;;;0.80;;
75459;SDS011;64039;53.060;9.342;2023-08-17T12:21:52;1.92;;;0.80;;
75459;SDS011;64039;53.060;9.342;2023-08-17T12:24:18;1.73;;;0.90;;
75459;SDS011;64039;53.060;9.342;2023-08-17T12:26:45;1.42;;;0.80;;
75459;SDS011;64039;53.060;9.342;2023-08-17T12:29:14;1.10;;;0.80;;
75459;SDS011;64039;53.060;9.342;2023-08-17T12:31:39;1.00;;;0.70;;
75459;SDS011;64039;53.060;9.342;2023-08-17T12:34:05;3.13;;;1.00;;
75459;SDS011;64039;53.060;9.342;2023-08-17T12:36:31;1.48;;;0.90;;
75459;SDS011;64039;53.060;9.342;2023-08-17T12:39:03;1.70;;;0.70;;
75459;SDS011;64039;53.060;9.342;2023-08-17T12:41:29;1.35;;;0.75;;
75459;SDS011;64039;53.060;9.342;2023-08-17T12:43:54;0.85;;;0.70;;
75459;SDS011;64039;53.060;9.342;2023-08-17T12:46:23;1.40;;;0.90;;
75459;SDS011;64039;53.060;9.342;2023-08-17T12:48:49;4.10;;;0.80;;
75459;SDS011;64039;53.060;9.342;2023-08-17T12:51:14;1.20;;;0.88;;
75459;SDS011;64039;53.060;9.342;2023-08-17T12:53:40;1.10;;;0.80;;
75459;SDS011;64039;53.060;9.342;2023-08-17T12:56:06;2.38;;;0.85;;
75459;SDS011;64039;53.060;9.342;2023-08-17T12:58:31;1.75;;;0.90;;
75459;SDS011;64039;53.060;9.342;2023-08-17T13:00:57;1.60;;;0.75;;
75459;SDS011;64039;53.060;9.342;2023-08-17T13:03:22;1.08;;;0.60;;
75459;SDS011;64039;53.060;9.342;2023-08-17T13:05:48;2.10;;;0.90;;
75459;SDS011;64039;53.060;9.342;2023-08-17T13:08:13;2.05;;;1.23;;
75459;SDS011;64039;53.060;9.342;2023-08-17T13:10:39;2.55;;;1.08;;
75459;SDS011;64039;53.060;9.342;2023-08-17T13:13:04;1.83;;;0.75;;
75459;SDS011;64039;53.060;9.342;2023-08-17T13:15:31;2.85;;;1.20;;
75459;SDS011;64039;53.060;9.342;2023-08-17T13:17:58;3.33;;;1.50;;
75459;SDS011;64039;53.060;9.342;2023-08-17T13:20:24;3.05;;;2.20;;
75459;SDS011;64039;53.060;9.342;2023-08-17T13:22:50;2.03;;;1.50;;
75459;SDS011;64039;53.060;9.342;2023-08-17T13:25:15;1.55;;;1.00;;
75459;SDS011;64039;53.060;9.342;2023-08-17T13:27:41;1.73;;;0.90;;
75459;SDS011;64039;53.060;9.342;2023-08-17T13:30:07;2.10;;;1.40;;
75459;SDS011;64039;53.060;9.342;2023-08-17T13:32:32;1.35;;;0.90;;
75459;SDS011;64039;53.060;9.342;2023-08-17T13:34:58;2.20;;;1.02;;
75459;SDS011;64039;53.060;9.342;2023-08-17T13:37:24;2.55;;;1.17;;
75459;SDS011;64039;53.060;9.342;2023-08-17T13:39:49;1.42;;;0.75;;
75459;SDS011;64039;53.060;9.342;2023-08-17T13:42:15;2.00;;;1.20;;
75459;SDS011;64039;53.060;9.342;2023-08-17T13:44:40;4.35;;;2.72;;
75459;SDS011;64039;53.060;9.342;2023-08-17T13:47:06;1.88;;;1.08;;
75459;SDS011;64039;53.060;9.342;2023-08-17T13:49:31;1.35;;;0.93;;
75459;SDS011;64039;53.060;9.342;2023-08-17T13:51:57;1.38;;;0.80;;
75459;SDS011;64039;53.060;9.342;2023-08-17T13:54:23;2.40;;;1.10;;
75459;SDS011;64039;53.060;9.342;2023-08-17T13:56:48;1.55;;;1.05;;
75459;SDS011;64039;53.060;9.342;2023-08-17T13:59:14;1.95;;;1.02;;
75459;SDS011;64039;53.060;9.342;2023-08-17T14:01:39;2.25;;;0.95;;
75459;SDS011;64039;53.060;9.342;2023-08-17T14:04:05;1.42;;;1.00;;
75459;SDS011;64039;53.060;9.342;2023-08-17T14:06:36;2.75;;;1.23;;
75459;SDS011;64039;53.060;9.342;2023-08-17T14:09:02;1.95;;;0.93;;
75459;SDS011;64039;53.060;9.342;2023-08-17T14:11:28;2.03;;;1.13;;
75459;SDS011;64039;53.060;9.342;2023-08-17T14:13:53;1.92;;;1.20;;
75459;SDS011;64039;53.060;9.342;2023-08-17T14:16:19;1.95;;;1.20;;
75459;SDS011;64039;53.060;9.342;2023-08-17T14:18:44;2.35;;;1.00;;
75459;SDS011;64039;53.060;9.342;2023-08-17T14:21:10;2.58;;;1.10;;
75459;SDS011;64039;53.060;9.342;2023-08-17T14:23:35;2.33;;;0.95;;
75459;SDS011;64039;53.060;9.342;2023-08-17T14:26:01;1.60;;;1.17;;
75459;SDS011;64039;53.060;9.342;2023-08-17T14:28:26;1.50;;;1.15;;
75459;SDS011;64039;53.060;9.342;2023-08-17T14:30:52;1.38;;;1.00;;
75459;SDS011;64039;53.060;9.342;2023-08-17T14:33:17;1.55;;;1.05;;
75459;SDS011;64039;53.060;9.342;2023-08-17T14:35:43;1.80;;;1.10;;
75459;SDS011;64039;53.060;9.342;2023-08-17T14:38:08;1.30;;;1.05;;
75459;SDS011;64039;53.060;9.342;2023-08-17T14:40:38;2.08;;;1.10;;
75459;SDS011;64039;53.060;9.342;2023-08-17T14:43:06;2.03;;;1.20;;
75459;SDS011;64039;53.060;9.342;2023-08-17T14:45:32;2.67;;;1.20;;
75459;SDS011;64039;53.060;9.342;2023-08-17T14:47:57;2.47;;;1.30;;
75459;SDS011;64039;53.060;9.342;2023-08-17T14:50:24;2.15;;;1.20;;
75459;SDS011;64039;53.060;9.342;2023-08-17T14:52:50;1.65;;;1.10;;